createdAt,value
2019-01-19T00:00:16.653Z,106.20
2019-01-19T00:03:08.855Z,89.10
2019-01-19T00:05:51.103Z,91.13
2019-01-19T00:08:43.710Z,95.00
2019-01-19T00:11:38.430Z,101.00
2019-01-19T00:14:21.747Z,94.60
2019-01-19T00:17:32.017Z,105.60
2019-01-19T00:20:35.825Z,106.30
2019-01-19T00:23:46.255Z,117.13
2019-01-19T00:27:15.034Z,119.70
2019-01-19T00:30:27.096Z,134.83
2019-01-19T00:33:36.370Z,163.33
2019-01-19T00:36:32.967Z,155.27
2019-01-19T00:39:28.390Z,162.70
2019-01-19T00:42:22.570Z,186.43
2019-01-19T00:45:45.031Z,173.20
2019-01-19T00:49:07.808Z,191.97
2019-01-19T00:52:15.405Z,210.43
2019-01-19T00:55:23.678Z,212.87
2019-01-19T00:58:39.449Z,224.20
2019-01-19T01:01:55.832Z,231.07
2019-01-19T01:05:09.114Z,214.87
2019-01-19T01:08:07.794Z,193.40
2019-01-19T01:11:02.135Z,186.47
2019-01-19T01:14:07.333Z,177.80
2019-01-19T01:16:52.821Z,176.20
2019-01-19T01:19:55.925Z,159.03
2019-01-19T01:22:50.437Z,144.77
2019-01-19T01:25:56.061Z,142.30
2019-01-19T01:28:59.148Z,146.87
2019-01-19T01:31:59.081Z,146.53
2019-01-19T01:34:54.882Z,137.13
2019-01-19T01:37:46.142Z,133.57
2019-01-19T01:40:44.350Z,149.13
2019-01-19T01:43:39.531Z,161.20
2019-01-19T01:46:48.982Z,153.73
2019-01-19T01:49:45.913Z,151.53
2019-01-19T01:52:50.884Z,153.73
2019-01-19T01:55:40.529Z,149.27
2019-01-19T01:58:56.797Z,146.70
2019-01-19T02:02:00.150Z,139.80
2019-01-19T02:05:17.442Z,129.67
2019-01-19T02:08:27.973Z,129.23
2019-01-19T02:11:31.865Z,118.07
2019-01-19T02:14:32.258Z,116.90
2019-01-19T02:17:51.500Z,120.23
2019-01-19T02:20:49.442Z,101.00
2019-01-19T02:24:01.528Z,100.17
2019-01-19T02:27:04.020Z,108.07
2019-01-19T02:30:19.527Z,84.50
2019-01-19T02:33:14.518Z,93.60
2019-01-19T02:36:30.127Z,90.40
2019-01-19T02:39:22.760Z,93.13
2019-01-19T02:42:19.377Z,93.33
2019-01-19T02:45:39.922Z,85.17
2019-01-19T02:48:31.058Z,76.97
2019-01-19T02:51:06.773Z,78.00
2019-01-19T02:54:17.309Z,81.47
2019-01-19T02:57:17.477Z,66.20
2019-01-19T03:00:10.788Z,72.50
2019-01-19T03:03:03.760Z,71.33
2019-01-19T03:06:10.417Z,59.33
2019-01-19T03:08:59.873Z,66.13
2019-01-19T03:12:00.337Z,63.60
2019-01-19T03:15:04.192Z,58.97
2019-01-19T03:17:58.501Z,71.80
2019-01-19T03:21:11.364Z,69.50
2019-01-19T03:24:24.821Z,67.67
2019-01-19T03:27:28.173Z,69.53
2019-01-19T03:30:30.654Z,74.00
2019-01-19T03:33:41.666Z,72.77
2019-01-19T03:36:42.773Z,73.23
2019-01-19T03:39:57.678Z,73.20
2019-01-19T03:43:07.161Z,83.17
2019-01-19T03:46:02.763Z,71.73
2019-01-19T03:49:06.393Z,78.20
2019-01-19T03:52:04.149Z,87.57
2019-01-19T03:55:22.316Z,88.17
2019-01-19T03:58:22.945Z,93.53
2019-01-19T04:01:03.557Z,83.23
2019-01-19T04:04:14.152Z,79.03
2019-01-19T04:07:02.149Z,75.50
2019-01-19T04:10:13.667Z,75.40
2019-01-19T04:13:23.728Z,75.10
2019-01-19T04:16:15.742Z,72.00
2019-01-19T04:19:26.644Z,69.63
2019-01-19T04:22:24.813Z,61.10
2019-01-19T04:25:01.900Z,62.67
2019-01-19T04:27:31.121Z,63.83
2019-01-19T04:30:00.232Z,56.87
2019-01-19T04:32:29.426Z,69.97
2019-01-19T04:34:58.542Z,61.63
2019-01-19T04:37:27.679Z,64.70
2019-01-19T04:39:56.813Z,52.27
2019-01-19T04:42:26.189Z,59.37
2019-01-19T04:44:55.349Z,54.27
2019-01-19T04:47:24.525Z,65.90
2019-01-19T04:49:53.705Z,54.60
2019-01-19T04:52:22.824Z,49.57
2019-01-19T04:54:51.953Z,48.80
2019-01-19T04:57:21.104Z,50.53
2019-01-19T04:59:50.219Z,56.03
2019-01-19T05:02:19.361Z,52.70
2019-01-19T05:04:48.578Z,53.87
2019-01-19T05:07:17.695Z,51.43
2019-01-19T05:09:46.816Z,41.90
2019-01-19T05:12:15.971Z,41.63
2019-01-19T05:14:45.101Z,42.13
2019-01-19T05:17:14.286Z,36.70
2019-01-19T05:19:43.421Z,38.67
2019-01-19T05:22:12.537Z,47.00
2019-01-19T05:24:41.708Z,44.87
2019-01-19T05:27:10.843Z,50.87
2019-01-19T05:29:39.945Z,58.43
2019-01-19T05:32:09.160Z,59.83
2019-01-19T05:34:38.377Z,61.37
2019-01-19T05:37:07.501Z,65.80
2019-01-19T05:39:36.638Z,59.67
2019-01-19T05:42:05.816Z,63.10
2019-01-19T05:44:34.949Z,59.10
2019-01-19T05:47:04.080Z,59.67
2019-01-19T05:49:33.310Z,60.47
2019-01-19T05:52:02.430Z,66.43
2019-01-19T05:54:31.545Z,68.53
2019-01-19T05:57:00.685Z,74.20
2019-01-19T05:59:29.796Z,72.87
2019-01-19T06:01:59.082Z,79.20
2019-01-19T06:04:28.304Z,84.03
2019-01-19T06:06:57.449Z,80.27
2019-01-19T06:09:26.557Z,86.70
2019-01-19T06:11:55.777Z,94.87
2019-01-19T06:14:25.766Z,83.97
2019-01-19T06:16:54.881Z,88.00
2019-01-19T06:19:24.486Z,90.93
2019-01-19T06:21:57.274Z,93.13
2019-01-19T06:24:26.436Z,104.10
2019-01-19T06:26:55.554Z,99.33
2019-01-19T06:29:24.665Z,92.63
2019-01-19T06:31:53.822Z,92.37
2019-01-19T06:34:22.941Z,98.07
2019-01-19T06:36:55.161Z,111.83
2019-01-19T06:39:22.890Z,109.53
2019-01-19T06:41:52.009Z,101.47
2019-01-19T06:44:21.165Z,107.53
2019-01-19T06:46:50.273Z,95.63
2019-01-19T06:49:19.471Z,113.40
2019-01-19T06:51:48.701Z,102.90
2019-01-19T06:54:18.037Z,109.63
2019-01-19T06:56:47.226Z,101.07
2019-01-19T06:59:17.571Z,120.33
2019-01-19T07:01:46.928Z,113.00
2019-01-19T07:04:16.085Z,102.90
2019-01-19T07:06:45.209Z,120.50
2019-01-19T07:09:14.341Z,129.53
2019-01-19T07:11:43.853Z,130.40
2019-01-19T07:14:13.009Z,129.97
2019-01-19T07:16:42.137Z,139.67
2019-01-19T07:19:11.254Z,153.23
2019-01-19T07:21:40.370Z,153.50
2019-01-19T07:24:09.478Z,125.60
2019-01-19T07:26:38.664Z,120.43
2019-01-19T07:29:07.857Z,118.17
2019-01-19T07:31:36.981Z,112.47
2019-01-19T07:34:06.106Z,123.23
2019-01-19T07:36:35.234Z,129.13
2019-01-19T07:39:06.449Z,112.03
2019-01-19T07:41:35.745Z,120.60
2019-01-19T07:44:05.006Z,117.90
2019-01-19T07:46:34.809Z,134.30
2019-01-19T07:49:03.924Z,134.77
2019-01-19T07:51:33.049Z,145.47
2019-01-19T07:54:02.247Z,146.33
2019-01-19T07:56:31.398Z,138.83
2019-01-19T07:59:00.605Z,137.70
2019-01-19T08:01:29.726Z,123.87
2019-01-19T08:03:58.857Z,106.57
2019-01-19T08:06:28.017Z,113.03
2019-01-19T08:08:57.189Z,108.83
2019-01-19T08:11:26.298Z,94.93
2019-01-19T08:13:55.417Z,89.57
2019-01-19T08:16:24.629Z,88.20
2019-01-19T08:18:53.774Z,92.97
2019-01-19T08:21:22.921Z,94.23
2019-01-19T08:23:52.059Z,106.20
2019-01-19T08:26:21.280Z,110.13
2019-01-19T08:28:50.401Z,106.87
2019-01-19T08:31:19.575Z,111.63
2019-01-19T08:33:48.725Z,113.60
2019-01-19T08:36:18.133Z,127.90
2019-01-19T08:38:47.268Z,111.93
2019-01-19T08:41:16.492Z,120.83
2019-01-19T08:43:52.408Z,121.13
2019-01-19T08:46:21.588Z,115.70
2019-01-19T08:48:50.717Z,108.43
2019-01-19T08:51:19.845Z,101.97
2019-01-19T08:53:49.001Z,112.47
2019-01-19T08:56:18.137Z,98.27
2019-01-19T08:58:47.329Z,99.17
2019-01-19T09:01:16.561Z,97.53
2019-01-19T09:03:45.773Z,106.47
2019-01-19T09:06:15.152Z,107.60
2019-01-19T09:08:44.762Z,96.00
2019-01-19T09:11:13.957Z,100.00
2019-01-19T09:13:43.321Z,99.70
2019-01-19T09:16:14.916Z,92.93
2019-01-19T09:18:44.149Z,84.57
2019-01-19T09:21:13.313Z,86.10
2019-01-19T09:24:02.651Z,81.27
2019-01-19T09:26:31.802Z,90.83
2019-01-19T09:29:00.913Z,81.47
2019-01-19T09:31:30.043Z,82.80
2019-01-19T09:33:59.157Z,75.73
2019-01-19T09:36:28.272Z,70.20
2019-01-19T09:38:57.413Z,77.23
2019-01-19T09:41:26.569Z,64.97
2019-01-19T09:43:55.682Z,78.97
2019-01-19T09:46:24.806Z,78.03
2019-01-19T09:48:54.037Z,81.47
2019-01-19T09:51:23.198Z,92.03
2019-01-19T09:53:52.312Z,77.23
2019-01-19T09:56:21.414Z,80.70
2019-01-19T09:58:50.838Z,81.97
2019-01-19T10:01:20.025Z,68.77
2019-01-19T10:03:49.177Z,64.80
2019-01-19T10:06:18.413Z,62.97
2019-01-19T10:08:47.581Z,56.37
2019-01-19T10:11:16.980Z,60.70
2019-01-19T10:13:46.673Z,55.87
2019-01-19T10:16:15.813Z,60.07
2019-01-19T10:18:45.024Z,65.43
2019-01-19T10:21:14.478Z,74.20
2019-01-19T10:23:43.589Z,69.50
2019-01-19T10:26:12.757Z,77.23
2019-01-19T10:28:42.393Z,64.33
2019-01-19T10:31:11.516Z,62.57
2019-01-19T10:33:40.669Z,69.10
2019-01-19T10:36:09.820Z,80.00
2019-01-19T10:38:39.005Z,77.90
2019-01-19T10:41:08.161Z,69.30
2019-01-19T10:43:37.273Z,74.33
2019-01-19T10:46:06.452Z,71.20
2019-01-19T10:48:35.557Z,74.57
2019-01-19T10:51:04.689Z,72.50
2019-01-19T10:53:33.838Z,74.97
2019-01-19T10:56:02.945Z,64.00
2019-01-19T10:58:32.072Z,59.20
2019-01-19T11:01:01.211Z,56.60
2019-01-19T11:03:30.395Z,53.10
2019-01-19T11:05:59.585Z,57.77
2019-01-19T11:08:28.693Z,43.17
2019-01-19T11:10:57.943Z,46.10
2019-01-19T11:13:27.129Z,38.70
2019-01-19T11:15:56.277Z,42.83
2019-01-19T11:18:25.402Z,45.03
2019-01-19T11:20:54.581Z,49.30
2019-01-19T11:23:23.738Z,47.50
2019-01-19T11:25:52.897Z,52.47
2019-01-19T11:28:22.036Z,52.37
2019-01-19T11:30:51.269Z,49.70
2019-01-19T11:33:20.377Z,50.80
2019-01-19T11:35:49.662Z,53.03
2019-01-19T11:38:20.209Z,46.93
2019-01-19T11:40:49.660Z,51.20
2019-01-19T11:43:18.801Z,49.37
2019-01-19T11:45:47.920Z,49.33
2019-01-19T11:48:17.109Z,41.17
2019-01-19T11:50:46.271Z,43.67
2019-01-19T11:53:15.389Z,32.17
2019-01-19T11:55:46.011Z,41.40
2019-01-19T11:58:15.353Z,36.57
2019-01-19T12:00:44.581Z,37.60
2019-01-19T12:03:13.717Z,35.97
2019-01-19T12:05:43.104Z,34.77
2019-01-19T12:08:19.204Z,36.83
2019-01-19T12:10:43.469Z,29.97
2019-01-19T12:13:12.597Z,31.73
2019-01-19T12:15:41.746Z,33.30
2019-01-19T12:18:11.269Z,36.13
2019-01-19T12:20:48.354Z,42.07
2019-01-19T12:23:17.605Z,31.80
2019-01-19T12:25:46.763Z,41.73
2019-01-19T12:28:15.909Z,47.33
2019-01-19T12:30:45.079Z,48.37
2019-01-19T12:33:14.245Z,40.37
2019-01-19T12:35:43.415Z,42.03
2019-01-19T12:38:12.576Z,44.00
2019-01-19T12:40:41.789Z,48.00
2019-01-19T12:43:21.801Z,42.53
2019-01-19T12:45:53.745Z,46.03
2019-01-19T12:48:22.877Z,47.57
2019-01-19T12:50:52.057Z,40.57
2019-01-19T12:53:21.406Z,42.73
2019-01-19T12:55:50.570Z,46.47
2019-01-19T12:58:19.825Z,44.50
2019-01-19T13:00:49.002Z,48.10
2019-01-19T13:03:18.184Z,45.20
2019-01-19T13:06:17.894Z,50.77
2019-01-19T13:08:47.037Z,53.43
2019-01-19T13:11:42.633Z,53.10
2019-01-19T13:14:11.842Z,45.57
2019-01-19T13:17:28.125Z,48.90
2019-01-19T13:20:34.125Z,49.67
2019-01-19T13:23:45.248Z,50.03
2019-01-19T13:26:41.972Z,48.27
2019-01-19T13:29:54.541Z,48.00
2019-01-19T13:33:14.301Z,40.40
2019-01-19T13:36:23.299Z,45.43
2019-01-19T13:39:24.466Z,44.33
2019-01-19T13:42:27.879Z,38.70
2019-01-19T13:45:21.204Z,38.23
2019-01-19T13:48:37.091Z,42.20
2019-01-19T13:51:29.877Z,36.17
2019-01-19T13:54:25.913Z,39.03
2019-01-19T13:57:21.653Z,40.43
2019-01-19T14:00:30.993Z,37.60
2019-01-19T14:03:46.650Z,41.43
2019-01-19T14:06:53.827Z,44.73
2019-01-19T14:10:16.382Z,37.83
2019-01-19T14:13:22.750Z,38.27
2019-01-19T14:16:29.585Z,35.97
2019-01-19T14:19:30.853Z,42.33
2019-01-19T14:22:27.081Z,30.73
2019-01-19T14:25:43.761Z,38.13
2019-01-19T14:28:54.781Z,41.97
2019-01-19T14:31:59.613Z,38.87
2019-01-19T14:34:38.767Z,38.27
2019-01-19T14:38:04.190Z,40.50
2019-01-19T14:41:23.318Z,34.87
2019-01-19T14:44:26.822Z,36.27
2019-01-19T14:47:14.374Z,37.03
2019-01-19T14:50:27.765Z,49.17
2019-01-19T14:53:59.397Z,42.23
2019-01-19T14:57:18.514Z,55.67
2019-01-19T15:00:18.029Z,59.17
2019-01-19T15:03:43.254Z,53.17
2019-01-19T15:06:45.865Z,50.07
2019-01-19T15:09:59.078Z,48.27
2019-01-19T15:12:45.673Z,47.97
2019-01-19T15:15:36.957Z,52.27
2019-01-19T15:18:48.069Z,57.40
2019-01-19T15:22:05.797Z,58.67
2019-01-19T15:25:00.005Z,61.30
2019-01-19T15:28:10.598Z,77.03
2019-01-19T15:31:18.892Z,86.37
2019-01-19T15:34:25.401Z,88.10
2019-01-19T15:37:39.552Z,83.47
2019-01-19T15:41:10.881Z,80.77
2019-01-19T15:44:36.189Z,79.43
2019-01-19T15:47:45.481Z,86.20
2019-01-19T15:50:51.393Z,92.13
2019-01-19T15:53:57.581Z,80.33
2019-01-19T15:56:58.934Z,95.47
2019-01-19T16:00:03.469Z,84.90
2019-01-19T16:03:16.274Z,84.13
2019-01-19T16:06:27.003Z,88.30
2019-01-19T16:09:33.356Z,95.50
2019-01-19T16:12:20.727Z,116.70
2019-01-19T16:16:04.538Z,118.17
2019-01-19T16:19:05.593Z,106.50
2019-01-19T16:22:19.517Z,103.67
2019-01-19T16:25:37.101Z,100.30
2019-01-19T16:28:35.237Z,106.33
2019-01-19T16:31:35.025Z,109.33
2019-01-19T16:34:32.225Z,115.70
2019-01-19T16:37:09.906Z,125.10
2019-01-19T16:40:13.125Z,142.47
2019-01-19T16:43:32.171Z,135.47
2019-01-19T16:46:50.919Z,137.10
2019-01-19T16:50:00.053Z,131.77
2019-01-19T16:52:53.690Z,132.30
2019-01-19T16:55:47.954Z,143.13
2019-01-19T16:59:10.653Z,132.83
2019-01-19T17:02:06.509Z,133.43
2019-01-19T17:05:20.514Z,137.20
2019-01-19T17:08:27.861Z,144.93
2019-01-19T17:11:24.646Z,161.33
2019-01-19T17:14:19.213Z,150.73
2019-01-19T17:17:41.279Z,147.00
2019-01-19T17:20:31.969Z,142.20
2019-01-19T17:23:23.952Z,162.17
2019-01-19T17:26:33.046Z,151.10
2019-01-19T17:29:37.894Z,148.30
2019-01-19T17:32:23.574Z,140.37
2019-01-19T17:35:38.001Z,140.77
2019-01-19T17:38:29.605Z,149.60
2019-01-19T17:41:41.189Z,141.63
2019-01-19T17:44:57.693Z,147.80
2019-01-19T17:48:00.281Z,135.63
2019-01-19T17:50:52.329Z,139.10
2019-01-19T17:53:50.775Z,125.67
2019-01-19T17:56:36.601Z,130.93
2019-01-19T17:59:47.023Z,125.90
2019-01-19T18:02:54.265Z,112.07
2019-01-19T18:05:49.333Z,115.37
2019-01-19T18:08:59.973Z,131.47
2019-01-19T18:12:28.601Z,135.93
2019-01-19T18:15:57.252Z,146.53
2019-01-19T18:19:04.470Z,138.97
2019-01-19T18:22:15.453Z,135.30
2019-01-19T18:25:21.452Z,264.63
2019-01-19T18:28:15.197Z,298.50
2019-01-19T18:31:30.382Z,293.40
2019-01-19T18:34:20.749Z,289.07
2019-01-19T18:37:05.457Z,325.00
2019-01-19T18:39:45.825Z,285.30
2019-01-19T18:42:36.931Z,316.07
2019-01-19T18:45:36.084Z,281.27
2019-01-19T18:48:52.620Z,262.13
2019-01-19T18:51:52.752Z,240.50
2019-01-19T18:55:12.210Z,213.17
2019-01-19T18:58:17.692Z,202.13
2019-01-19T19:01:08.604Z,192.50
2019-01-19T19:04:34.652Z,188.50
2019-01-19T19:07:48.254Z,166.97
2019-01-19T19:10:50.462Z,169.27
2019-01-19T19:13:53.733Z,170.07
2019-01-19T19:16:45.233Z,204.80
2019-01-19T19:19:46.349Z,209.47
2019-01-19T19:22:54.280Z,235.67
2019-01-19T19:26:00.461Z,206.70
2019-01-19T19:29:10.130Z,211.53
2019-01-19T19:32:23.602Z,201.23
2019-01-19T19:35:22.625Z,209.43
2019-01-19T19:38:06.664Z,234.67
2019-01-19T19:41:19.877Z,212.37
2019-01-19T19:44:18.077Z,192.27
2019-01-19T19:47:30.824Z,181.27
2019-01-19T19:50:54.990Z,200.50
2019-01-19T19:53:24.199Z,177.87
2019-01-19T19:55:51.815Z,172.87
2019-01-19T19:58:20.994Z,174.50
2019-01-19T20:00:50.526Z,168.43
2019-01-19T20:03:19.634Z,169.50
2019-01-19T20:05:48.865Z,168.83
2019-01-19T20:08:18.062Z,172.83
2019-01-19T20:10:47.180Z,175.77
2019-01-19T20:13:16.399Z,206.60
2019-01-19T20:15:45.575Z,195.83
2019-01-19T20:18:14.691Z,198.33
2019-01-19T20:20:43.925Z,189.07
2019-01-19T20:23:13.251Z,181.47
2019-01-19T20:25:42.425Z,177.00
2019-01-19T20:28:11.689Z,196.60
2019-01-19T20:30:40.826Z,207.33
2019-01-19T20:33:09.969Z,186.17
2019-01-19T20:35:39.161Z,202.93
2019-01-19T20:38:08.497Z,187.90
2019-01-19T20:40:37.599Z,193.37
2019-01-19T20:43:06.742Z,192.97
2019-01-19T20:45:35.897Z,204.93
2019-01-19T20:48:05.115Z,195.67
2019-01-19T20:50:34.272Z,212.77
2019-01-19T20:53:03.452Z,187.87
2019-01-19T20:55:32.625Z,187.80
2019-01-19T20:58:01.807Z,192.40
2019-01-19T21:00:30.925Z,203.33
2019-01-19T21:03:00.037Z,209.97
2019-01-19T21:05:29.237Z,194.00
2019-01-19T21:07:58.382Z,232.87
2019-01-19T21:10:31.798Z,269.07
2019-01-19T21:12:58.474Z,276.13
2019-01-19T21:15:27.616Z,278.47
2019-01-19T21:17:56.976Z,295.27
2019-01-19T21:20:26.148Z,294.40
2019-01-19T21:22:55.448Z,287.03
2019-01-19T21:25:24.666Z,280.27
2019-01-19T21:27:53.837Z,279.47
2019-01-19T21:30:22.970Z,280.23
2019-01-19T21:32:52.148Z,323.77
2019-01-19T21:35:21.333Z,358.07
2019-01-19T21:37:50.477Z,406.10
2019-01-19T21:40:19.610Z,459.40
2019-01-19T21:42:48.741Z,441.80
2019-01-19T21:45:19.268Z,454.00
2019-01-19T21:47:48.457Z,430.37
2019-01-19T21:50:17.592Z,433.83
2019-01-19T21:52:46.867Z,454.90
2019-01-19T21:55:16.109Z,476.80
2019-01-19T21:57:45.273Z,502.47
2019-01-19T22:00:16.582Z,509.93
2019-01-19T22:02:45.761Z,515.33
2019-01-19T22:05:15.154Z,502.13
2019-01-19T22:07:44.394Z,502.07
2019-01-19T22:10:15.697Z,494.83
2019-01-19T22:12:44.966Z,500.23
2019-01-19T22:15:15.993Z,491.40
2019-01-19T22:17:45.148Z,516.23
2019-01-19T22:20:15.441Z,524.17
2019-01-19T22:22:44.555Z,525.10
2019-01-19T22:25:13.696Z,532.37
2019-01-19T22:27:46.753Z,563.03
2019-01-19T22:30:18.734Z,540.60
2019-01-19T22:32:49.137Z,552.17
2019-01-19T22:35:18.497Z,538.60
2019-01-19T22:37:47.690Z,564.80
2019-01-19T22:40:17.504Z,542.57
2019-01-19T22:42:46.753Z,561.67
2019-01-19T22:45:16.363Z,531.00
2019-01-19T22:47:45.707Z,545.37
2019-01-19T22:50:15.735Z,491.63
2019-01-19T22:52:44.933Z,475.70
2019-01-19T22:55:14.366Z,448.07
2019-01-19T22:57:43.567Z,485.53
2019-01-19T23:00:59.673Z,451.87
2019-01-19T23:03:30.974Z,455.37
2019-01-19T23:06:00.209Z,422.20
2019-01-19T23:08:29.537Z,419.90
2019-01-19T23:11:01.328Z,430.37
2019-01-19T23:13:29.537Z,429.93
2019-01-19T23:15:58.736Z,425.63
2019-01-19T23:18:27.954Z,439.43
2019-01-19T23:20:57.270Z,424.40
2019-01-19T23:23:26.494Z,468.53
2019-01-19T23:25:56.316Z,442.90
2019-01-19T23:28:25.545Z,466.37
2019-01-19T23:30:54.836Z,434.27
2019-01-19T23:33:24.151Z,446.33
2019-01-19T23:35:53.273Z,445.83
2019-01-19T23:38:22.793Z,453.40
2019-01-19T23:40:51.968Z,476.73
2019-01-19T23:43:21.114Z,488.50
2019-01-19T23:45:50.302Z,509.23
2019-01-19T23:48:19.482Z,470.63
2019-01-19T23:50:48.598Z,480.73
2019-01-19T23:53:17.767Z,458.40
2019-01-19T23:55:46.960Z,466.93
2019-01-19T23:58:16.077Z,452.30
